New Bedford, Ohio
Current Conditions -  °F | °C
As of 9:28 AM on Monday 26 Jan 2015 (Local Time) from KPHD Reporting Station
Light Snow Light Snow  
Wind Chill: 14°   Ceiling: 2000
Heat Index: 23°   Visibility: 1.2mi
Dew Point: 18°   Wind: 8mph
Humidity: 81%   Direction: 360°N
Pressure: 29.77"   Gusts: NA
Location:  40.3648°N, 81.765°W
Report Text: KPHD 261428Z AUTO 36007KT 1 1/4SM -SN OVC020 M05/M08 A2977 RMK AO2 P0000 T10501078
Loading
Personal Weather Stations






























Interactive Weather Map New forecast layout! Learn more

10-Day Weather Forecast

Advertisements
Track Severe Weather on mobile